Time;durP1;ratioP1;P1;durP2;ratioP2;P2;SDS_P1;SDS_P2;PMS_P1;PMS_P2;Temp;Humidity;BMP_temperature;BMP_pressure;BME280_temperature;BME280_humidity;BME280_pressure;Samples;Min_cycle;Max_cycle;Signal;HPM_P1;HPM_P2
2024/03/31 00:01:46;;;;;;;;;;;;;;;11.28;100.00;93832.72;10452790;28;2866;-68
2024/03/31 00:06:50;;;;;;;;;;;;;;;11.17;100.00;93823.44;10441786;28;2703;-71
2024/03/31 00:11:54;;;;;;;;;;;;;;;10.98;100.00;93833.81;10455481;28;2826;-75
2024/03/31 00:16:57;;;;;;;;;;;;;;;10.87;100.00;93843.31;10453735;28;2864;-70
2024/03/31 00:21:59;;;;;;;;;;;;;;;10.77;100.00;93849.84;10451768;28;2821;-73
2024/03/31 00:27:00;;;;;;;;;;;;;;;10.69;100.00;93843.41;10468147;28;2920;-69
2024/03/31 00:32:02;;;;;;;;;;;;;;;10.56;100.00;93855.13;10458117;28;2760;-70
2024/03/31 00:37:04;;;;;;;;;;;;;;;10.60;100.00;93874.88;10456264;28;2573;-70
2024/03/31 00:42:09;;;;;;;;;;;;;;;10.59;100.00;93870.59;10456970;28;2588;-69
2024/03/31 00:47:11;;;;;;;;;;;;;;;10.52;100.00;93881.84;10459205;28;2829;-69
2024/03/31 00:52:14;;;;;;;;;;;;;;;10.42;100.00;93887.53;10456654;28;2884;-69
2024/03/31 00:57:16;;;;;;;;;;;;;;;10.33;100.00;93894.03;10456152;28;2675;-71
2024/03/31 01:02:18;;;;;;;;;;;;;;;10.27;100.00;93913.00;10458609;28;3127;-68
2024/03/31 01:07:20;;;;;;;;;;;;;;;10.23;100.00;93917.41;10457760;28;2697;-69
2024/03/31 01:12:22;;;;;;;;;;;;;;;10.22;100.00;93925.75;10454035;28;2911;-74
2024/03/31 01:17:26;;;;;;;;;;;;;;;10.15;100.00;93915.47;10456613;28;2695;-70
2024/03/31 01:22:31;;;;;;;;;;;;;;;10.01;100.00;93904.13;10458355;28;2586;-69
2024/03/31 01:27:32;;;;;;;;;;;;;;;10.16;100.00;93989.56;10462239;28;2787;-69
2024/03/31 01:32:34;;;;;;;;;;;;;;;10.21;100.00;94024.31;10459096;28;2602;-69
2024/03/31 01:37:39;;;;;;;;;;;;;;;10.18;100.00;94069.78;10460639;28;2805;-69
2024/03/31 01:42:44;;;;;;;;;;;;;;;10.19;100.00;94090.19;10457655;28;2365;-70
2024/03/31 01:47:45;;;;;;;;;;;;;;;10.12;100.00;94096.00;10455610;28;2838;-70
2024/03/31 01:52:47;;;;;;;;;;;;;;;10.04;100.00;94094.06;10454784;28;2784;-69
2024/03/31 01:57:51;;;;;;;;;;;;;;;9.88;100.00;94082.19;10453537;28;2913;-69
2024/03/31 02:02:52;;;;;;;;;;;;;;;9.89;100.00;94056.91;10472520;28;2898;-69
2024/03/31 02:07:54;;;;;;;;;;;;;;;9.83;100.00;94036.69;10466653;28;2604;-69
2024/03/31 02:12:56;;;;;;;;;;;;;;;9.77;100.00;94033.34;10464577;28;2710;-69
2024/03/31 02:17:57;;;;;;;;;;;;;;;9.78;100.00;93991.22;10453379;28;2998;-67
2024/03/31 02:22:59;;;;;;;;;;;;;;;9.68;100.00;93992.31;10452151;28;2846;-68
2024/03/31 02:28:02;;;;;;;;;;;;;;;9.61;100.00;94011.53;10462740;28;2932;-68
2024/03/31 02:33:04;;;;;;;;;;;;;;;9.57;100.00;94007.88;10456650;28;3010;-69
2024/03/31 02:38:05;;;;;;;;;;;;;;;9.57;100.00;93994.47;10456337;28;2858;-69
2024/03/31 02:43:07;;;;;;;;;;;;;;;9.57;100.00;93997.16;10477634;28;2786;-70
2024/03/31 02:48:09;;;;;;;;;;;;;;;9.46;100.00;93979.75;10461542;28;2806;-70
2024/03/31 02:53:11;;;;;;;;;;;;;;;9.38;100.00;93972.47;10486014;28;2751;-70
2024/03/31 02:58:13;;;;;;;;;;;;;;;9.30;100.00;93944.53;10467441;28;2790;-72
2024/03/31 03:03:16;;;;;;;;;;;;;;;9.21;100.00;93941.78;10467574;28;2894;-69
2024/03/31 03:08:18;;;;;;;;;;;;;;;9.05;100.00;93935.25;10465230;28;2790;-68
2024/03/31 03:13:19;;;;;;;;;;;;;;;8.97;100.00;93951.28;10461183;28;2895;-69
2024/03/31 03:18:22;;;;;;;;;;;;;;;8.97;100.00;93952.09;10459517;28;3038;-74
2024/03/31 03:23:24;;;;;;;;;;;;;;;8.92;100.00;93950.34;10475210;28;2737;-72
2024/03/31 03:28:25;;;;;;;;;;;;;;;8.84;100.00;93969.84;10457682;28;2849;-71
2024/03/31 03:33:27;;;;;;;;;;;;;;;8.79;100.00;93956.56;10454177;28;2904;-74
2024/03/31 03:38:28;;;;;;;;;;;;;;;8.71;100.00;93964.53;10460321;28;2834;-68
2024/03/31 03:43:33;;;;;;;;;;;;;;;8.57;100.00;93959.25;10458579;28;2715;-69
2024/03/31 03:48:39;;;;;;;;;;;;;;;8.44;100.00;93955.53;10461053;28;2434;-69
2024/03/31 03:53:40;;;;;;;;;;;;;;;8.45;100.00;93949.06;10464756;28;2875;-69
2024/03/31 03:58:42;;;;;;;;;;;;;;;8.31;100.00;93949.09;10459062;28;2823;-69
2024/03/31 04:03:48;;;;;;;;;;;;;;;8.29;100.00;93956.66;10461240;28;2777;-71
2024/03/31 04:08:51;;;;;;;;;;;;;;;8.26;100.00;93961.81;10459941;28;2836;-69
2024/03/31 04:13:53;;;;;;;;;;;;;;;8.27;100.00;93944.66;10459592;28;2878;-69
2024/03/31 04:18:55;;;;;;;;;;;;;;;8.12;100.00;93938.56;10458744;28;2814;-70
2024/03/31 04:23:57;;;;;;;;;;;;;;;8.10;100.00;93946.09;10457437;28;2822;-74
2024/03/31 04:28:59;;;;;;;;;;;;;;;8.04;100.00;93944.63;10461140;28;2867;-69
2024/03/31 04:34:01;;;;;;;;;;;;;;;7.97;100.00;93935.44;10455641;28;2647;-70
2024/03/31 04:39:04;;;;;;;;;;;;;;;8.01;100.00;93925.72;10458032;28;2715;-70
2024/03/31 04:44:06;;;;;;;;;;;;;;;7.91;100.00;93944.69;10454783;28;2572;-69
2024/03/31 04:49:11;;;;;;;;;;;;;;;8.02;100.00;93962.88;10471585;28;2929;-70
2024/03/31 04:54:13;;;;;;;;;;;;;;;8.03;100.00;93972.50;10478647;28;2843;-69
2024/03/31 04:59:16;;;;;;;;;;;;;;;8.06;100.00;93982.59;10460894;28;2743;-69
2024/03/31 05:04:19;;;;;;;;;;;;;;;8.17;100.00;93980.47;10454595;28;2735;-71
2024/03/31 05:09:26;;;;;;;;;;;;;;;8.28;100.00;93981.06;10449139;28;2893;-71
2024/03/31 05:14:28;;;;;;;;;;;;;;;8.43;100.00;93974.59;10452156;28;2941;-68
2024/03/31 05:19:33;;;;;;;;;;;;;;;8.57;100.00;93989.50;10453165;28;2426;-69
2024/03/31 05:24:35;;;;;;;;;;;;;;;8.76;100.00;93988.53;10457273;28;2719;-71
2024/03/31 05:29:36;;;;;;;;;;;;;;;8.92;100.00;93997.78;10451954;28;2782;-68
2024/03/31 05:34:38;;;;;;;;;;;;;;;9.00;100.00;93988.19;10460375;28;2901;-68
2024/03/31 05:39:40;;;;;;;;;;;;;;;9.12;100.00;93994.56;10455652;28;2835;-68
2024/03/31 05:44:42;;;;;;;;;;;;;;;9.18;100.00;93996.03;10452388;28;2410;-69
2024/03/31 05:49:44;;;;;;;;;;;;;;;9.35;100.00;93994.50;10456627;28;2746;-69
2024/03/31 05:54:46;;;;;;;;;;;;;;;9.54;100.00;93992.38;10446566;28;2867;-70
2024/03/31 05:59:48;;;;;;;;;;;;;;;9.68;100.00;94003.81;10453178;28;2776;-69
2024/03/31 06:04:50;;;;;;;;;;;;;;;9.82;100.00;94008.28;10453379;28;2790;-69
2024/03/31 06:09:56;;;;;;;;;;;;;;;9.96;100.00;94014.31;10457010;28;2757;-69
2024/03/31 06:14:58;;;;;;;;;;;;;;;10.07;100.00;94012.91;10456505;28;2621;-69
2024/03/31 06:20:00;;;;;;;;;;;;;;;10.22;100.00;94015.16;10461556;28;2996;-69
2024/03/31 06:25:02;;;;;;;;;;;;;;;10.32;100.00;94011.41;10463089;28;2941;-68
2024/03/31 06:30:07;;;;;;;;;;;;;;;10.42;100.00;94018.34;10462009;28;2778;-69
2024/03/31 06:35:09;;;;;;;;;;;;;;;10.57;100.00;94004.47;10462068;28;2799;-69
2024/03/31 06:40:11;;;;;;;;;;;;;;;10.69;100.00;93987.72;10461501;28;2838;-76
2024/03/31 06:45:12;;;;;;;;;;;;;;;10.88;100.00;93982.00;10461323;28;2807;-68
2024/03/31 06:50:15;;;;;;;;;;;;;;;10.92;100.00;93985.63;10464772;28;2862;-71
2024/03/31 06:55:18;;;;;;;;;;;;;;;11.17;100.00;93986.69;10461136;28;2901;-70
2024/03/31 07:00:20;;;;;;;;;;;;;;;11.25;100.00;93992.03;10472098;28;2692;-69
2024/03/31 07:05:23;;;;;;;;;;;;;;;11.15;100.00;93988.91;10458017;28;2844;-69
2024/03/31 07:10:27;;;;;;;;;;;;;;;11.15;100.00;93995.09;10466055;28;2947;-69
2024/03/31 07:15:32;;;;;;;;;;;;;;;11.15;100.00;93992.41;10469874;28;2797;-71
2024/03/31 07:20:34;;;;;;;;;;;;;;;11.12;100.00;93997.59;10436373;28;2872;-73
2024/03/31 07:25:36;;;;;;;;;;;;;;;11.51;100.00;93985.78;10459374;28;2756;-71
2024/03/31 07:30:38;;;;;;;;;;;;;;;11.46;100.00;93978.69;10458571;28;2775;-74
2024/03/31 07:35:40;;;;;;;;;;;;;;;11.54;100.00;93977.88;10459777;28;2581;-77
2024/03/31 07:40:42;;;;;;;;;;;;;;;11.60;100.00;93973.88;10469429;28;2619;-75
2024/03/31 07:45:43;;;;;;;;;;;;;;;11.54;100.00;93963.63;10454609;28;2535;-72
2024/03/31 07:50:50;;;;;;;;;;;;;;;11.37;100.00;93959.88;10459369;28;2810;-71
2024/03/31 07:55:51;;;;;;;;;;;;;;;11.48;100.00;93948.78;10455032;28;2750;-70
2024/03/31 08:00:54;;;;;;;;;;;;;;;11.33;100.00;93937.44;10454668;28;2663;-70
2024/03/31 08:05:55;;;;;;;;;;;;;;;10.99;100.00;93941.00;10460250;28;2903;-69
2024/03/31 08:10:57;;;;;;;;;;;;;;;10.94;100.00;93946.59;10465251;28;2739;-68
2024/03/31 08:16:01;;;;;;;;;;;;;;;11.17;100.00;93949.03;10475769;28;2745;-68
2024/03/31 08:21:06;;;;;;;;;;;;;;;11.36;100.00;93955.63;10458917;28;2682;-68
2024/03/31 08:26:07;;;;;;;;;;;;;;;11.56;100.00;93967.56;10457859;28;2769;-68
2024/03/31 08:31:09;;;;;;;;;;;;;;;11.74;100.00;93940.56;10436631;28;2848;-69
2024/03/31 08:36:10;;;;;;;;;;;;;;;11.96;100.00;93955.66;10456666;28;2770;-71
2024/03/31 08:41:12;;;;;;;;;;;;;;;12.00;100.00;93959.28;10457455;28;2668;-72
2024/03/31 08:46:14;;;;;;;;;;;;;;;12.05;100.00;93941.03;10457253;28;2747;-69
2024/03/31 08:51:17;;;;;;;;;;;;;;;12.19;100.00;93932.72;10541944;22;2647;-70
2024/03/31 08:56:19;;;;;;;;;;;;;;;12.27;100.00;93931.06;10532722;27;2859;-69
2024/03/31 09:01:22;;;;;;;;;;;;;;;12.65;100.00;93941.69;10531782;27;2862;-70
2024/03/31 09:06:24;;;;;;;;;;;;;;;12.94;100.00;93948.88;10511832;27;2834;-69
2024/03/31 09:11:26;;;;;;;;;;;;;;;13.08;100.00;93945.88;10535295;27;2656;-69
2024/03/31 09:16:28;;;;;;;;;;;;;;;13.18;100.00;93929.28;10536104;27;2784;-69
2024/03/31 09:21:30;;;;;;;;;;;;;;;13.47;100.00;93929.09;10532059;27;2540;-71
2024/03/31 09:26:38;;;;;;;;;;;;;;;13.60;100.00;93924.50;10532777;27;2864;-68
2024/03/31 09:31:39;;;;;;;;;;;;;;;13.98;100.00;93910.66;10527716;28;2811;-68
2024/03/31 09:36:41;;;;;;;;;;;;;;;14.16;100.00;93913.09;10537252;27;2798;-69
2024/03/31 09:41:49;;;;;;;;;;;;;;;14.51;100.00;93905.28;10526867;28;3017;-69
2024/03/31 09:46:51;;;;;;;;;;;;;;;14.96;100.00;93893.34;10509429;27;3129;-69
2024/03/31 09:51:52;;;;;;;;;;;;;;;15.60;100.00;93894.97;10533729;28;2853;-74
2024/03/31 09:56:54;;;;;;;;;;;;;;;15.85;100.00;93893.66;10531368;28;2804;-69
2024/03/31 10:01:56;;;;;;;;;;;;;;;15.43;100.00;93882.56;10525703;28;2554;-70
2024/03/31 10:06:57;;;;;;;;;;;;;;;15.30;100.00;93879.16;10525239;28;2796;-69
2024/03/31 10:11:59;;;;;;;;;;;;;;;15.43;100.00;93884.47;10524238;28;2906;-68
2024/03/31 10:17:01;;;;;;;;;;;;;;;15.40;100.00;93875.16;10523694;28;2606;-69
2024/03/31 10:22:03;;;;;;;;;;;;;;;15.67;100.00;93868.84;10533719;28;2769;-69
2024/03/31 10:27:05;;;;;;;;;;;;;;;16.01;100.00;93863.78;10528927;28;2944;-69
2024/03/31 10:32:07;;;;;;;;;;;;;;;16.62;100.00;93852.28;10528474;28;2740;-70
2024/03/31 10:37:09;;;;;;;;;;;;;;;16.91;100.00;93842.75;10528797;28;2904;-68
2024/03/31 10:42:10;;;;;;;;;;;;;;;17.35;100.00;93839.66;10545360;28;2865;-69
2024/03/31 10:47:12;;;;;;;;;;;;;;;17.56;100.00;93834.56;10528866;28;2634;-71
2024/03/31 10:52:14;;;;;;;;;;;;;;;18.01;100.00;93843.03;10527321;28;2705;-69
2024/03/31 10:57:15;;;;;;;;;;;;;;;18.78;99.40;93823.41;10525876;28;2920;-69
2024/03/31 11:02:17;;;;;;;;;;;;;;;18.02;100.00;93822.84;10532679;27;2864;-68
2024/03/31 11:07:18;;;;;;;;;;;;;;;17.03;100.00;93817.38;10534931;27;2848;-68
2024/03/31 11:12:20;;;;;;;;;;;;;;;16.48;100.00;93828.38;10534775;27;2821;-69
2024/03/31 11:17:21;;;;;;;;;;;;;;;17.23;100.00;93821.59;10537018;27;2852;-70
2024/03/31 11:22:23;;;;;;;;;;;;;;;17.81;100.00;93824.09;10533302;28;2868;-70
2024/03/31 11:27:25;;;;;;;;;;;;;;;18.62;100.00;93814.63;10547529;27;2588;-69
2024/03/31 11:32:27;;;;;;;;;;;;;;;19.20;98.58;93803.19;10535093;28;2840;-69
2024/03/31 11:37:29;;;;;;;;;;;;;;;18.75;100.00;93815.97;10550123;27;2953;-68
2024/03/31 11:42:31;;;;;;;;;;;;;;;18.83;100.00;93809.47;10540017;27;2926;-69
2024/03/31 11:47:32;;;;;;;;;;;;;;;18.56;100.00;93811.44;10552944;27;2886;-70
2024/03/31 11:52:34;;;;;;;;;;;;;;;18.51;100.00;93806.38;10555938;27;2594;-70
2024/03/31 11:57:40;;;;;;;;;;;;;;;18.47;100.00;93797.38;10535569;27;2762;-70
2024/03/31 12:02:42;;;;;;;;;;;;;;;18.01;100.00;93791.38;10529566;28;2776;-68
2024/03/31 12:07:44;;;;;;;;;;;;;;;18.10;100.00;93791.88;10533250;27;2801;-68
2024/03/31 12:12:48;;;;;;;;;;;;;;;18.60;100.00;93776.13;10529298;27;2789;-68
2024/03/31 12:17:50;;;;;;;;;;;;;;;19.12;100.00;93775.09;10535614;27;2843;-70
2024/03/31 12:22:52;;;;;;;;;;;;;;;19.53;82.01;93760.63;10533955;27;2931;-70
2024/03/31 12:27:54;;;;;;;;;;;;;;;20.18;71.83;93757.13;10537536;27;2869;-69
2024/03/31 12:32:56;;;;;;;;;;;;;;;20.42;63.60;93751.00;10536317;27;2713;-68
2024/03/31 12:37:58;;;;;;;;;;;;;;;20.70;60.09;93752.25;10538287;28;2753;-69
2024/03/31 12:43:00;;;;;;;;;;;;;;;21.05;56.63;93751.53;10527573;27;2784;-70
2024/03/31 12:48:05;;;;;;;;;;;;;;;20.72;77.55;93764.34;10525488;27;3185;-69
2024/03/31 12:53:06;;;;;;;;;;;;;;;20.05;100.00;93753.19;10545900;27;2854;-69
2024/03/31 12:58:08;;;;;;;;;;;;;;;19.58;100.00;93749.41;10514423;27;2811;-68
2024/03/31 13:03:09;;;;;;;;;;;;;;;20.07;100.00;93751.63;10530948;27;2640;-75
2024/03/31 13:08:11;;;;;;;;;;;;;;;19.70;100.00;93760.00;10515704;28;2796;-72
2024/03/31 13:13:15;;;;;;;;;;;;;;;19.52;100.00;93745.44;10529871;28;2741;-69
2024/03/31 13:18:16;;;;;;;;;;;;;;;19.64;100.00;93734.25;10533627;28;2729;-71
2024/03/31 13:23:20;;;;;;;;;;;;;;;19.51;100.00;93738.41;10530652;28;2954;-72
2024/03/31 13:28:24;;;;;;;;;;;;;;;19.60;100.00;93717.91;10532920;28;2825;-71
2024/03/31 13:33:25;;;;;;;;;;;;;;;19.86;98.01;93710.63;10527065;27;2684;-70
2024/03/31 13:38:29;;;;;;;;;;;;;;;20.19;98.17;93704.13;10532260;27;2896;-69
2024/03/31 13:43:31;;;;;;;;;;;;;;;19.69;97.64;93687.56;10528003;28;2853;-69
2024/03/31 13:48:32;;;;;;;;;;;;;;;20.06;93.50;93679.16;10532497;27;2837;-69
2024/03/31 13:53:35;;;;;;;;;;;;;;;20.45;85.16;93705.81;10534079;28;2814;-69
2024/03/31 13:58:36;;;;;;;;;;;;;;;20.73;71.75;93713.25;10532169;28;2767;-73
2024/03/31 14:03:37;;;;;;;;;;;;;;;20.65;64.35;93696.09;10535240;28;2806;-69
2024/03/31 14:08:39;;;;;;;;;;;;;;;20.91;61.20;93684.03;10535523;28;2857;-69
2024/03/31 14:13:41;;;;;;;;;;;;;;;20.41;61.01;93667.53;10516063;28;2865;-68
2024/03/31 14:18:42;;;;;;;;;;;;;;;20.40;60.65;93654.31;10534521;28;2602;-69
2024/03/31 14:23:44;;;;;;;;;;;;;;;20.31;61.57;93641.03;10531137;28;2796;-68
2024/03/31 14:28:46;;;;;;;;;;;;;;;20.49;59.83;93620.06;10532434;28;2876;-68
2024/03/31 14:33:47;;;;;;;;;;;;;;;20.52;53.39;93627.44;10537337;27;2871;-71
2024/03/31 14:38:49;;;;;;;;;;;;;;;20.66;45.43;93639.53;10539790;27;2533;-69
2024/03/31 14:43:50;;;;;;;;;;;;;;;20.74;42.58;93641.09;10519988;27;2839;-69
2024/03/31 14:48:52;;;;;;;;;;;;;;;20.85;42.68;93641.88;10537575;27;2634;-68
2024/03/31 14:53:54;;;;;;;;;;;;;;;20.80;41.47;93634.09;10536607;27;2815;-71
2024/03/31 14:58:55;;;;;;;;;;;;;;;20.72;40.39;93649.69;10538158;27;2829;-68
2024/03/31 15:03:57;;;;;;;;;;;;;;;20.74;37.70;93647.38;10537211;28;2635;-68
2024/03/31 15:08:59;;;;;;;;;;;;;;;20.78;33.86;93659.06;10530179;27;2543;-67
2024/03/31 15:14:00;;;;;;;;;;;;;;;21.03;34.05;93659.06;10532949;28;2857;-69
2024/03/31 15:19:02;;;;;;;;;;;;;;;21.00;32.70;93659.84;10537099;27;2913;-69
2024/03/31 15:24:04;;;;;;;;;;;;;;;20.97;31.67;93668.81;10539372;27;2647;-68
2024/03/31 15:29:06;;;;;;;;;;;;;;;21.05;31.54;93677.78;10532319;28;2613;-69
2024/03/31 15:34:07;;;;;;;;;;;;;;;21.09;31.91;93686.75;10540623;27;2542;-69
2024/03/31 15:39:09;;;;;;;;;;;;;;;21.06;33.14;93679.38;10537429;28;2549;-76
2024/03/31 15:44:10;;;;;;;;;;;;;;;21.23;32.53;93683.22;10532948;28;2510;-71
2024/03/31 15:49:12;;;;;;;;;;;;;;;21.02;32.26;93700.41;10535689;27;2543;-74
2024/03/31 15:54:14;;;;;;;;;;;;;;;20.79;32.75;93709.75;10533876;28;2496;-69
2024/03/31 15:59:16;;;;;;;;;;;;;;;20.77;32.95;93717.56;10551928;28;2542;-72
2024/03/31 16:04:17;;;;;;;;;;;;;;;20.78;33.79;93713.66;10533124;28;2629;-70
2024/03/31 16:09:19;;;;;;;;;;;;;;;20.58;33.28;93719.88;10532045;27;2531;-74
2024/03/31 16:14:20;;;;;;;;;;;;;;;20.32;33.81;93716.25;10532283;28;2549;-72
2024/03/31 16:19:22;;;;;;;;;;;;;;;20.16;33.62;93713.06;10537345;27;2648;-74
2024/03/31 16:24:24;;;;;;;;;;;;;;;20.01;34.00;93714.19;10533608;28;2532;-70
2024/03/31 16:29:26;;;;;;;;;;;;;;;19.79;34.33;93727.75;10419689;22;2570;-71
2024/03/31 16:34:28;;;;;;;;;;;;;;;19.49;35.39;93732.59;10414986;28;2555;-69
2024/03/31 16:39:30;;;;;;;;;;;;;;;19.25;36.02;93742.91;10413224;28;2556;-71
2024/03/31 16:49:35;;;;;;;;;;;;;;;18.86;38.45;93735.19;8459443;22;3094;-71
2024/03/31 16:54:38;;;;;;;;;;;;;;;18.77;38.07;93748.34;10416557;28;2599;-73
2024/03/31 16:59:40;;;;;;;;;;;;;;;18.56;40.67;93751.59;10418436;28;2611;-72
2024/03/31 17:04:41;;;;;;;;;;;;;;;18.34;39.44;93761.47;10397720;28;2684;-72
2024/03/31 17:09:43;;;;;;;;;;;;;;;18.15;40.32;93769.78;10413987;28;2575;-70
2024/03/31 17:14:44;;;;;;;;;;;;;;;17.93;40.39;93773.38;10412368;28;2533;-72
2024/03/31 17:19:47;;;;;;;;;;;;;;;17.72;41.78;93782.81;10401540;28;2417;-71
2024/03/31 17:24:49;;;;;;;;;;;;;;;17.55;42.50;93781.38;10420787;28;2572;-72
2024/03/31 17:29:53;;;;;;;;;;;;;;;17.38;43.55;93794.69;10415048;28;2410;-70
2024/03/31 17:34:56;;;;;;;;;;;;;;;17.23;44.18;93805.31;10420919;28;2885;-72
2024/03/31 17:39:57;;;;;;;;;;;;;;;17.10;43.51;93798.50;10418588;28;2746;-72
2024/03/31 17:44:59;;;;;;;;;;;;;;;16.91;45.28;93799.34;10421689;28;2592;-73
2024/03/31 17:50:03;;;;;;;;;;;;;;;16.81;45.53;93793.75;10414162;28;2316;-72
2024/03/31 17:55:05;;;;;;;;;;;;;;;16.75;46.49;93785.91;10458052;28;2524;-73
2024/03/31 18:00:08;;;;;;;;;;;;;;;16.61;48.32;93784.84;10460464;28;2571;-71
2024/03/31 18:05:13;;;;;;;;;;;;;;;16.54;48.56;93771.13;10459104;28;2589;-71
2024/03/31 18:10:15;;;;;;;;;;;;;;;16.44;49.11;93775.22;10458203;28;2672;-71
2024/03/31 18:15:18;;;;;;;;;;;;;;;16.39;48.37;93770.09;10458738;28;2577;-71
2024/03/31 18:20:19;;;;;;;;;;;;;;;16.25;48.53;93751.63;10459285;28;2822;-73
2024/03/31 18:25:21;;;;;;;;;;;;;;;16.20;48.89;93739.13;10459646;28;2525;-71
2024/03/31 18:30:23;;;;;;;;;;;;;;;16.10;50.11;93739.72;10472072;28;2604;-73
2024/03/31 18:35:24;;;;;;;;;;;;;;;16.10;50.25;93745.16;10473278;28;2665;-72
2024/03/31 18:40:28;;;;;;;;;;;;;;;16.01;51.34;93755.41;10458736;28;2613;-72
2024/03/31 18:45:32;;;;;;;;;;;;;;;15.95;50.75;93775.78;10455072;28;2631;-73
2024/03/31 18:50:34;;;;;;;;;;;;;;;15.89;51.43;93790.75;10453802;28;2705;-73
2024/03/31 18:55:35;;;;;;;;;;;;;;;15.83;52.33;93770.50;10460180;28;2710;-74
2024/03/31 19:00:39;;;;;;;;;;;;;;;15.82;51.10;93756.19;10455788;28;2505;-74
2024/03/31 19:05:41;;;;;;;;;;;;;;;15.75;50.54;93763.38;10452950;28;2625;-72
2024/03/31 19:10:43;;;;;;;;;;;;;;;15.71;50.58;93755.16;10465627;28;2724;-72
2024/03/31 19:15:45;;;;;;;;;;;;;;;15.54;51.28;93740.09;10464053;28;2629;-72
2024/03/31 19:20:49;;;;;;;;;;;;;;;15.34;52.41;93744.69;10465405;28;2649;-73
2024/03/31 19:25:51;;;;;;;;;;;;;;;15.14;52.93;93762.78;10467035;28;2666;-73
2024/03/31 19:30:54;;;;;;;;;;;;;;;15.02;51.36;93768.28;10465331;28;2654;-76
2024/03/31 19:35:57;;;;;;;;;;;;;;;14.89;49.89;93780.34;10470886;28;1564;-73
2024/03/31 19:41:01;;;;;;;;;;;;;;;14.86;49.27;93791.84;10455110;28;2219;-73
2024/03/31 19:46:03;;;;;;;;;;;;;;;14.74;48.18;93775.69;10465024;28;2348;-74
2024/03/31 19:51:05;;;;;;;;;;;;;;;14.74;47.79;93784.59;10471445;28;1961;-71
2024/03/31 19:56:12;;;;;;;;;;;;;;;14.44;49.04;93794.19;10468839;28;1479;-71
2024/03/31 20:01:13;;;;;;;;;;;;;;;14.26;50.22;93793.72;10463485;28;1351;-73
2024/03/31 20:06:15;;;;;;;;;;;;;;;14.20;49.94;93798.59;10463321;28;2705;-72
2024/03/31 20:11:17;;;;;;;;;;;;;;;14.32;51.30;93792.34;10462215;28;1910;-71
2024/03/31 20:16:19;;;;;;;;;;;;;;;14.27;51.08;93787.97;10453230;28;2343;-72
2024/03/31 20:21:20;;;;;;;;;;;;;;;14.31;51.31;93779.94;10463838;28;2558;-72
2024/03/31 20:26:22;;;;;;;;;;;;;;;14.24;51.19;93788.66;10460254;28;2623;-71
2024/03/31 20:31:27;;;;;;;;;;;;;;;14.16;53.57;93803.09;10457704;28;2577;-71
2024/03/31 20:36:29;;;;;;;;;;;;;;;14.08;55.06;93812.16;10463034;28;2358;-71
2024/03/31 20:41:30;;;;;;;;;;;;;;;13.81;58.51;93824.50;10459910;28;2389;-71
2024/03/31 20:46:33;;;;;;;;;;;;;;;13.70;60.77;93824.16;10459375;28;2396;-71
2024/03/31 20:51:35;;;;;;;;;;;;;;;13.74;60.64;93808.88;10459304;28;2427;-71
2024/03/31 20:56:39;;;;;;;;;;;;;;;13.62;62.28;93803.50;10447261;28;2498;-73
2024/03/31 21:01:40;;;;;;;;;;;;;;;13.59;65.37;93795.28;10461535;28;2523;-71
2024/03/31 21:06:43;;;;;;;;;;;;;;;13.39;67.92;93781.59;10459438;28;2560;-74
2024/03/31 21:11:46;;;;;;;;;;;;;;;13.33;70.71;93788.34;10469047;28;2472;-73
2024/03/31 21:16:48;;;;;;;;;;;;;;;13.22;72.82;93789.91;10461289;28;2624;-73
2024/03/31 21:21:52;;;;;;;;;;;;;;;13.32;74.15;93764.41;10456769;28;2632;-71
2024/03/31 21:26:55;;;;;;;;;;;;;;;13.35;76.02;93761.00;10454361;28;2582;-71
2024/03/31 21:31:56;;;;;;;;;;;;;;;13.30;76.92;93759.34;10457676;28;2593;-71
2024/03/31 21:36:58;;;;;;;;;;;;;;;13.35;78.56;93736.72;10461425;28;2676;-73
2024/03/31 21:42:00;;;;;;;;;;;;;;;13.49;76.98;93742.56;10438520;28;2639;-71
2024/03/31 21:47:04;;;;;;;;;;;;;;;13.53;77.25;93736.13;10463046;28;2403;-71
2024/03/31 21:52:06;;;;;;;;;;;;;;;13.57;77.36;93738.16;10456346;28;2503;-73
2024/03/31 21:57:10;;;;;;;;;;;;;;;13.59;77.51;93730.47;10465902;28;2620;-71
2024/03/31 22:02:12;;;;;;;;;;;;;;;13.70;76.47;93726.19;10472817;28;2557;-71
2024/03/31 22:07:15;;;;;;;;;;;;;;;13.85;75.83;93719.25;10456405;28;2506;-71
2024/03/31 22:12:17;;;;;;;;;;;;;;;13.88;77.43;93715.88;10459196;28;2683;-72
2024/03/31 22:17:19;;;;;;;;;;;;;;;13.93;75.73;93705.63;10463756;28;2573;-72
2024/03/31 22:22:21;;;;;;;;;;;;;;;13.95;75.47;93687.16;10464846;28;2600;-72
2024/03/31 22:27:23;;;;;;;;;;;;;;;13.97;76.32;93701.09;10460089;28;2428;-73
2024/03/31 22:32:28;;;;;;;;;;;;;;;13.97;76.54;93703.78;10462364;28;2316;-72
2024/03/31 22:37:30;;;;;;;;;;;;;;;14.02;75.21;93684.63;10473322;28;2371;-71
2024/03/31 22:42:32;;;;;;;;;;;;;;;13.97;76.77;93676.00;10454288;28;2539;-71
2024/03/31 22:47:34;;;;;;;;;;;;;;;14.13;72.15;93687.63;10462648;28;2577;-72
2024/03/31 22:52:37;;;;;;;;;;;;;;;14.17;71.01;93676.91;10462331;28;2582;-72
2024/03/31 22:57:39;;;;;;;;;;;;;;;14.20;68.79;93662.72;10466831;28;2696;-72
2024/03/31 23:02:43;;;;;;;;;;;;;;;14.34;66.12;93631.41;10475969;28;2522;-71
2024/03/31 23:07:44;;;;;;;;;;;;;;;14.16;68.39;93632.09;10466105;28;2493;-70
2024/03/31 23:12:47;;;;;;;;;;;;;;;14.40;65.36;93612.22;10463710;28;2519;-73
2024/03/31 23:17:51;;;;;;;;;;;;;;;14.54;63.29;93597.16;10467666;28;2380;-72
2024/03/31 23:22:53;;;;;;;;;;;;;;;14.60;62.39;93617.38;10489838;28;2490;-71
2024/03/31 23:27:56;;;;;;;;;;;;;;;14.55;63.44;93609.53;10455553;28;2608;-71
2024/03/31 23:32:58;;;;;;;;;;;;;;;14.41;63.84;93625.38;10469543;28;2432;-72
2024/03/31 23:38:00;;;;;;;;;;;;;;;14.38;65.18;93590.16;10467913;28;2489;-72
2024/03/31 23:43:03;;;;;;;;;;;;;;;14.41;63.90;93576.75;10458345;28;2592;-75
2024/03/31 23:48:04;;;;;;;;;;;;;;;14.52;63.10;93550.78;10468951;28;2546;-71
2024/03/31 23:53:06;;;;;;;;;;;;;;;14.72;60.82;93540.00;10483168;28;2545;-71
2024/03/31 23:58:12;;;;;;;;;;;;;;;14.87;59.23;93539.16;10466095;28;2581;-70
